CheckWX is a tool to help pilots better visualize weather data.  It is not intended as a substitute for an official pre-flight weather briefing.

18:59:27 UTC

CYRJ METAR
Roberval Airport
Roberval, Quebec, Canada
Current

59 mins ago

CYRJ 191800Z 33010G15KT 25SM BKN041 M16/M24 A3037 RMK SC7 SLP306
Observed
Feb-19 @ 18:00 UTC
Wind
  • 330° at 10 KTS
  • Gusting to 15 KTS
Visibility
25 SM
Flight Rules
VFR
Cloud Levels
  • Broken at 4,100' AGL
Temperature
-16°C / 3°F
Dewpoint
-24°C / -11°F
Humidity
50%
Altimeter
30.37" Hg
Pressure
1030.6 hPa
Previous

2 hours ago

CYRJ 191700Z 33011G16KT 25SM BKN040 M16/M24 A3038 RMK SC7 SLP309
Observed
Feb-19 @ 17:00 UTC
Wind
  • 330° at 11 KTS
  • Gusting to 16 KTS
Visibility
25 SM
Flight Rules
VFR
Cloud Levels
  • Broken at 4,000' AGL
Temperature
-16°C / 3°F
Dewpoint
-24°C / -11°F
Humidity
50%
Altimeter
30.38" Hg
Pressure
1030.9 hPa
Previous

3 hours ago

CYRJ 191600Z 33011KT 25SM BKN035 M17/M25 A3039 RMK SC5 SLP312
Observed
Feb-19 @ 16:00 UTC
Wind
  • 330° at 11 KTS
Visibility
25 SM
Flight Rules
VFR
Cloud Levels
  • Broken at 3,500' AGL
Temperature
-17°C / 1°F
Dewpoint
-25°C / -13°F
Humidity
50%
Altimeter
30.39" Hg
Pressure
1031.2 hPa